Airfield :
LOGIN :

Register | Disclaimer

   EN    FR    IT 

 










Legend :    VFR   Marginal VFR   IFR   Intensive IFR   Very Intensive IFR
Visi :
Ceiling :
>= 8 km
>= 3000ft
5 to 8 km
1000 to 3000 ft
1500m to 5 km
500 to 1000 ft
800 to 1500m
200 to 500 ft
< 800m
< 200 ft
Symbols :   Thunderstorms  Fog  Heavy snow  Heavy precipitations  Wind > 20 kt
SIGMETs :     Misc.  Thunderstorms  Icing  Turbulence  Mountain Waves  Volcanic Ashes






- Airport Elevation : 141 ft
- IATA code : SKS


EKSP - Srydstrup Vojens

CURRENT METAR :
  • 161920Z 20011KT 8000 -RA FEW025 BKN048 06/05 Q0989 RERA

EXPIRED METARs :
  • 161850Z 23012KT 200V260 8000 RA SCT012 BKN025 06/04 Q0990
  • 161820Z 25016G27KT 8000 RA SCT009 BKN025 06/04 Q0990
  • 161800Z 25016KT 8000 RA BKN010 OVC027 06/05 Q0990
  • 161720Z 23012KT 9999 -RA BKN010 OVC027 07/05 Q0990
  • 161650Z 24015KT 9999 -RA BKN010 OVC027 07/06 Q0990

TAF TAF EKSP
Valid from the 16 at 18:00 until the 17 at 18:00 UTC


161723Z 1618/1718 24015KT 9999 BKN030
BECMG 1618/1621 22020G32KT
TEMPO 1618/1620 4000 RA BKN008
TEMPO 1620/1623 4000 SHRA SCT015CB
TEMPO 1623/1715 24025G42KT FEW020CB



MET'MAP, your aeronautical weather chart ! - Copyright ORBIFLY December 2007 - Disclaimer

ORBIFLY MET'MAP TEAM :

Programming & Development : Alexandra Zaïnal
Concept & original design : Baudouin d'Aumeries
Assistance for programming : Marc-Olivier Méhu
Technical & hardware support : Manuel Goepfert

Contact : metmap@orbifly.com




SOURCES & CREDITS :

   NOAA